Terminal Aerodrome Forecast
Issued by NWS

Home | Current Version | Previous Version | Text Only | Print | Product List | Glossary On
Versions: 1 2 3 4 5 6 7 8 9 10 11 12
000
FTUS46 KSEW 031729
TAFPAE
TAF
KPAE 031729Z 0318/0418 32005KT P6SM SCT200
     FM040500 36004KT P6SM BKN050
     FM041000 VRB03KT P6SM OVC015
     FM041300 VRB03KT P6SM OVC007
     FM041700 20004KT P6SM OVC015=

USA.gov is the U.S. government's official web portal to all federal, state and local government web resources and services.